Time;durP1;ratioP1;P1;durP2;ratioP2;P2;SDS_P1;SDS_P2;PMS_P1;PMS_P2;Temp;Humidity;BMP_temperature;BMP_pressure;BME280_temperature;BME280_humidity;BME280_pressure;Samples;Min_cycle;Max_cycle;Signal;HPM_P1;HPM_P2
2022/09/04 00:00:13;;;;;;;5.23;3.30;;;18.20;99.20;;;;;;20674697;28;20241;-71
2022/09/04 00:10:30;;;;;;;7.60;3.97;;;18.00;98.90;;;;;;20655959;28;20244;-72
2022/09/04 00:20:48;;;;;;;4.17;3.67;;;18.00;98.80;;;;;;20672587;28;20706;-71
2022/09/04 00:31:18;;;;;;;4.77;3.90;;;17.80;98.60;;;;;;20672211;28;20245;-71
2022/09/04 00:41:42;;;;;;;5.23;3.90;;;17.70;98.30;;;;;;20659241;28;20682;-73
2022/09/04 00:52:15;;;;;;;7.97;3.60;;;17.60;98.20;;;;;;20671608;28;20721;-73
2022/09/04 01:02:51;;;;;;;4.20;3.57;;;17.50;97.90;;;;;;20672873;28;20685;-72
2022/09/04 01:13:19;;;;;;;4.90;3.47;;;17.50;98.00;;;;;;20672521;28;20251;-73
2022/09/04 01:23:34;;;;;;;8.30;3.93;;;17.40;97.80;;;;;;20653522;28;20210;-72
2022/09/04 01:34:16;;;;;;;5.00;3.73;;;17.30;97.60;;;;;;20669233;28;20236;-73
2022/09/04 01:44:18;;;;;;;6.43;3.43;;;17.20;97.60;;;;;;20669069;28;20216;-73
2022/09/04 01:54:39;;;;;;;5.20;3.23;;;17.10;97.40;;;;;;20672609;28;20323;-71
2022/09/04 02:04:55;;;;;;;4.13;3.40;;;17.00;97.40;;;;;;20670689;28;20224;-72
2022/09/04 02:15:18;;;;;;;3.73;3.37;;;16.90;97.40;;;;;;20668754;28;20599;-73
2022/09/04 02:25:37;;;;;;;5.57;3.33;;;16.80;97.20;;;;;;20676183;28;20210;-72
2022/09/04 02:35:52;;;;;;;4.10;3.00;;;16.80;97.30;;;;;;20674670;28;20209;-73
2022/09/04 02:46:11;;;;;;;4.30;3.50;;;16.80;97.10;;;;;;20685018;28;20593;-74
2022/09/04 02:56:15;;;;;;;3.60;3.03;;;16.70;97.00;;;;;;20682106;28;20685;-73
2022/09/04 03:06:24;;;;;;;6.30;3.20;;;16.60;97.00;;;;;;20678612;28;20243;-72
2022/09/04 03:16:40;;;;;;;4.73;3.40;;;16.50;96.90;;;;;;20677761;28;20229;-72
2022/09/04 03:26:49;;;;;;;4.07;3.10;;;16.30;97.00;;;;;;20660676;28;20242;-73
2022/09/04 03:36:57;;;;;;;4.73;2.90;;;16.30;96.90;;;;;;20676022;28;20302;-74
2022/09/04 03:47:30;;;;;;;4.43;3.17;;;16.30;96.90;;;;;;20675238;28;20246;-72
2022/09/04 03:58:02;;;;;;;4.10;3.20;;;16.10;96.90;;;;;;20674146;28;20210;-73
2022/09/04 04:08:36;;;;;;;4.37;3.03;;;16.10;96.70;;;;;;20673226;28;20243;-74
2022/09/04 04:19:05;;;;;;;6.83;2.77;;;16.00;96.80;;;;;;20653954;28;20230;-73
2022/09/04 04:29:38;;;;;;;3.20;2.90;;;16.00;96.70;;;;;;20671812;28;20245;-76
2022/09/04 04:39:59;;;;;;;4.40;3.23;;;15.90;96.80;;;;;;20653515;28;20579;-72
2022/09/04 04:50:07;;;;;;;3.50;2.90;;;16.00;96.70;;;;;;20670191;28;20238;-73
2022/09/04 05:00:44;;;;;;;5.47;4.27;;;15.80;96.60;;;;;;20669140;28;20224;-72
2022/09/04 05:11:01;;;;;;;5.13;3.90;;;15.80;96.60;;;;;;20617561;28;20234;-72
2022/09/04 05:21:05;;;;;;;3.43;3.10;;;15.80;96.60;;;;;;20668548;28;20237;-74
2022/09/04 05:31:28;;;;;;;6.07;3.73;;;15.80;96.60;;;;;;20668410;28;20237;-74
2022/09/04 05:41:57;;;;;;;3.47;3.17;;;15.80;96.60;;;;;;20667374;28;20204;-74
2022/09/04 05:52:23;;;;;;;4.10;3.60;;;15.90;96.80;;;;;;20667112;28;20786;-74
2022/09/04 06:02:44;;;;;;;4.93;3.97;;;16.00;96.60;;;;;;20666681;28;20249;-75
2022/09/04 06:13:03;;;;;;;6.83;3.87;;;16.20;96.80;;;;;;20671649;28;20248;-73
2022/09/04 06:23:23;;;;;;;9.43;5.93;;;16.40;96.60;;;;;;20681470;28;20288;-70
2022/09/04 06:34:02;;;;;;;4.90;3.63;;;16.60;96.30;;;;;;20680992;28;20237;-72
2022/09/04 06:44:14;;;;;;;6.50;3.80;;;16.90;96.30;;;;;;20680019;28;20214;-74
2022/09/04 06:54:37;;;;;;;4.30;3.80;;;17.10;95.90;;;;;;20679107;28;20241;-78
2022/09/04 07:05:04;;;;;;;7.03;4.00;;;17.30;95.80;;;;;;20678260;28;20221;-74
2022/09/04 07:15:34;;;;;;;4.43;4.03;;;17.50;95.70;;;;;;20677587;28;20598;-73
2022/09/04 07:25:59;;;;;;;6.13;4.80;;;17.80;95.50;;;;;;20675502;28;20217;-78
2022/09/04 07:36:15;;;;;;;6.77;5.07;;;18.10;95.50;;;;;;20675840;28;20215;-75
2022/09/04 07:46:32;;;;;;;18.30;4.87;;;18.30;95.40;;;;;;20675481;28;20708;-74
2022/09/04 07:56:36;;;;;;;5.47;4.63;;;18.60;95.40;;;;;;20674208;28;20215;-77
2022/09/04 08:06:55;;;;;;;9.43;5.07;;;18.90;95.40;;;;;;20673384;28;20231;-71
2022/09/04 08:17:23;;;;;;;6.30;5.03;;;19.20;95.40;;;;;;20672596;28;20242;-73
2022/09/04 08:27:46;;;;;;;5.93;4.93;;;19.50;95.50;;;;;;20672281;28;20327;-73
2022/09/04 08:38:34;;;;;;;6.03;5.20;;;19.80;95.50;;;;;;20654820;28;20298;-70
2022/09/04 08:49:27;;;;;;;7.17;5.07;;;20.20;95.60;;;;;;20646075;28;20251;-74
2022/09/04 09:00:06;;;;;;;5.40;4.23;;;20.60;95.70;;;;;;20669453;28;20213;-73
2022/09/04 09:10:24;;;;;;;5.23;4.00;;;20.90;95.70;;;;;;20668439;28;20245;-71
2022/09/04 09:20:30;;;;;;;6.30;4.10;;;21.30;95.60;;;;;;20667505;28;20245;-75
2022/09/04 09:31:09;;;;;;;3.93;3.30;;;21.60;95.50;;;;;;20667687;28;20238;-72
2022/09/04 09:41:36;;;;;;;4.43;2.90;;;22.00;95.20;;;;;;20666826;28;20210;-70
2022/09/04 09:52:01;;;;;;;3.23;2.57;;;22.20;94.90;;;;;;20666208;28;20773;-72
2022/09/04 10:02:07;;;;;;;3.27;2.03;;;22.70;94.80;;;;;;20667484;28;20209;-72
2022/09/04 10:12:34;;;;;;;2.47;2.17;;;23.00;94.10;;;;;;20666953;28;20249;-73
2022/09/04 10:23:10;;;;;;;2.03;1.83;;;23.00;93.50;;;;;;20666857;28;20209;-71
2022/09/04 10:33:28;;;;;;;2.00;1.70;;;23.20;93.00;;;;;;20652526;28;20233;-70
2022/09/04 10:43:43;;;;;;;2.30;1.87;;;23.00;92.40;;;;;;20666305;28;20210;-72
2022/09/04 10:54:04;;;;;;;17.03;8.40;;;23.10;91.90;;;;;;20664160;28;20241;-72
2022/09/04 11:04:51;;;;;;;5.83;3.70;;;23.10;90.80;;;;;;20675422;28;20269;-78
2022/09/04 11:15:20;;;;;;;2.70;2.03;;;23.10;90.40;;;;;;20631865;28;20250;-67
2022/09/04 11:25:43;;;;;;;20.20;3.67;;;23.00;89.40;;;;;;20676521;28;20217;-64
2022/09/04 11:36:07;;;;;;;2.53;2.00;;;23.00;88.90;;;;;;20675557;28;20234;-72
2022/09/04 11:46:28;;;;;;;2.40;1.60;;;23.30;88.10;;;;;;20675232;28;20217;-71
2022/09/04 11:56:52;;;;;;;2.40;1.90;;;23.20;87.70;;;;;;20673954;28;20345;-72
2022/09/04 12:07:31;;;;;;;4.80;3.50;;;23.10;86.90;;;;;;20672713;28;20236;-72
2022/09/04 12:18:13;;;;;;;3.80;2.10;;;23.10;86.50;;;;;;20672179;28;20337;-72
2022/09/04 12:28:40;;;;;;;2.80;1.70;;;23.20;86.30;;;;;;20671863;28;20629;-72
2022/09/04 12:39:20;;;;;;;5.43;2.90;;;23.60;85.50;;;;;;20670621;28;20217;-74
2022/09/04 12:49:49;;;;;;;3.23;2.20;;;24.30;82.90;;;;;;20669148;28;20237;-72
2022/09/04 12:59:58;;;;;;;2.13;1.53;;;24.60;80.20;;;;;;20669996;28;20322;-72
2022/09/04 13:10:25;;;;;;;1.93;1.40;;;24.50;78.30;;;;;;20668738;28;20234;-71
2022/09/04 13:20:51;;;;;;;1.70;1.50;;;24.40;77.30;;;;;;20666826;28;20728;-72
2022/09/04 13:31:24;;;;;;;1.60;1.50;;;24.20;77.30;;;;;;20667554;28;20738;-73
2022/09/04 13:41:53;;;;;;;2.40;1.40;;;24.00;76.60;;;;;;20666903;28;20663;-72
2022/09/04 13:52:06;;;;;;;3.77;3.13;;;23.90;76.80;;;;;;20666540;28;20229;-73
2022/09/04 14:02:13;;;;;;;3.07;2.77;;;23.80;77.20;;;;;;20666368;28;20548;-73
2022/09/04 14:12:30;;;;;;;2.30;1.90;;;23.70;78.30;;;;;;20666002;28;20250;-73
2022/09/04 14:22:50;;;;;;;2.00;1.80;;;23.70;79.20;;;;;;20648253;28;20205;-72
2022/09/04 14:33:11;;;;;;;2.33;1.67;;;23.50;80.60;;;;;;20670226;28;20714;-72
2022/09/04 14:43:47;;;;;;;3.97;1.80;;;23.50;81.50;;;;;;20680575;28;20585;-73
2022/09/04 14:53:54;;;;;;;2.20;2.00;;;23.50;82.00;;;;;;20679002;28;20237;-76
2022/09/04 15:04:15;;;;;;;2.90;2.37;;;23.60;82.10;;;;;;20678218;28;20296;-76
2022/09/04 15:14:31;;;;;;;3.67;2.63;;;23.70;82.10;;;;;;20677700;28;20257;-74
2022/09/04 15:25:07;;;;;;;4.03;3.07;;;23.70;82.00;;;;;;20676766;28;20205;-73
2022/09/04 15:35:14;;;;;;;2.57;1.80;;;23.80;81.80;;;;;;20622836;28;20230;-73
2022/09/04 15:45:31;;;;;;;2.77;1.90;;;23.90;81.00;;;;;;20674712;28;20225;-71
2022/09/04 15:55:36;;;;;;;3.43;2.40;;;24.00;80.20;;;;;;20674435;28;20295;-76
2022/09/04 16:05:57;;;;;;;5.23;4.30;;;24.00;78.40;;;;;;20673789;28;20206;-72
2022/09/04 16:16:18;;;;;;;2.07;1.70;;;24.20;77.70;;;;;;20672975;28;20242;-76
2022/09/04 16:26:28;;;;;;;2.37;1.60;;;24.20;76.00;;;;;;20671813;28;20216;-72
2022/09/04 16:36:44;;;;;;;1.97;1.77;;;24.20;75.50;;;;;;20671516;28;20226;-71
2022/09/04 16:47:09;;;;;;;4.23;1.90;;;24.30;74.90;;;;;;20670557;28;20308;-72
2022/09/04 16:57:14;;;;;;;2.73;2.00;;;24.30;74.90;;;;;;20670210;28;20210;-73
2022/09/04 17:07:29;;;;;;;3.33;2.83;;;24.20;74.60;;;;;;20669083;28;20234;-69
2022/09/04 17:17:36;;;;;;;3.60;2.40;;;24.20;74.10;;;;;;20668248;28;20244;-80
2022/09/04 17:28:09;;;;;;;2.40;1.80;;;24.00;74.10;;;;;;20650970;28;20238;-77
2022/09/04 17:38:39;;;;;;;2.63;1.90;;;23.90;74.20;;;;;;20666835;28;20214;-75
2022/09/04 17:49:16;;;;;;;2.47;1.80;;;23.70;74.70;;;;;;20667388;28;20639;-74
2022/09/04 17:59:26;;;;;;;4.00;2.17;;;23.50;75.70;;;;;;20666621;28;20209;-73
2022/09/04 18:09:36;;;;;;;5.93;4.20;;;23.30;76.80;;;;;;20671189;28;20236;-77
2022/09/04 18:19:46;;;;;;;14.37;11.40;;;23.10;78.00;;;;;;20678760;28;20236;-73
2022/09/04 18:30:01;;;;;;;2.87;2.30;;;22.90;78.80;;;;;;20663535;28;20230;-73
2022/09/04 18:40:42;;;;;;;3.27;2.00;;;22.70;79.80;;;;;;20681100;28;20269;-74
2022/09/04 18:51:23;;;;;;;4.57;2.67;;;22.50;81.20;;;;;;20677442;28;20241;-76
2022/09/04 19:01:26;;;;;;;2.97;2.20;;;22.30;82.20;;;;;;20678367;28;20680;-73
2022/09/04 19:11:33;;;;;;;4.17;3.17;;;22.10;83.10;;;;;;20677675;28;20277;-74
2022/09/04 19:21:40;;;;;;;3.80;3.40;;;22.00;83.80;;;;;;20675636;28;20682;-74
2022/09/04 19:32:03;;;;;;;3.90;2.80;;;21.80;84.70;;;;;;20675720;28;20242;-75
2022/09/04 19:42:17;;;;;;;4.13;2.30;;;21.60;85.70;;;;;;20675797;28;20214;-75
2022/09/04 19:52:52;;;;;;;2.67;2.40;;;21.40;86.40;;;;;;20674620;28;20236;-76
2022/09/04 20:03:21;;;;;;;8.57;2.93;;;21.30;87.50;;;;;;20673728;28;20209;-75
2022/09/04 20:13:54;;;;;;;7.37;3.80;;;21.20;88.10;;;;;;20673380;28;20243;-75
2022/09/04 20:23:55;;;;;;;2.97;2.50;;;21.00;88.90;;;;;;20672538;28;20262;-77
2022/09/04 20:34:22;;;;;;;3.13;2.30;;;20.80;89.60;;;;;;20670931;28;20239;-75
2022/09/04 20:44:31;;;;;;;3.23;2.63;;;20.70;90.20;;;;;;20670928;28;20252;-77
2022/09/04 20:54:50;;;;;;;4.87;2.60;;;20.60;90.40;;;;;;20669507;28;20233;-77
2022/09/04 21:05:18;;;;;;;2.93;2.30;;;20.50;90.60;;;;;;20669445;28;20217;-76
2022/09/04 21:15:39;;;;;;;5.97;2.63;;;20.30;90.80;;;;;;20668609;28;20251;-75
2022/09/04 21:26:18;;;;;;;3.83;2.87;;;20.20;91.20;;;;;;20667789;28;20213;-75
2022/09/04 21:36:37;;;;;;;2.80;2.50;;;20.00;91.60;;;;;;20666268;28;20252;-77
2022/09/04 21:47:03;;;;;;;3.30;2.70;;;19.90;91.90;;;;;;20666408;28;20214;-77
2022/09/04 21:57:40;;;;;;;3.53;2.70;;;19.80;92.20;;;;;;20666924;28;20665;-75
2022/09/04 22:08:19;;;;;;;4.70;3.10;;;19.80;92.40;;;;;;20667177;28;20640;-77
2022/09/04 22:19:02;;;;;;;3.20;2.50;;;19.60;92.70;;;;;;20651438;28;20235;-77
2022/09/04 22:29:45;;;;;;;3.37;2.63;;;19.50;93.10;;;;;;20665653;28;20733;-76
2022/09/04 22:40:13;;;;;;;7.10;2.87;;;19.40;93.50;;;;;;20665036;28;20209;-77
2022/09/04 22:50:30;;;;;;;6.90;2.70;;;19.30;93.60;;;;;;20664471;28;20235;-77
2022/09/04 23:00:57;;;;;;;3.63;2.50;;;19.10;93.60;;;;;;20678839;28;20226;-76
2022/09/04 23:11:19;;;;;;;4.50;2.60;;;19.00;93.70;;;;;;20678282;28;20238;-75
2022/09/04 23:21:58;;;;;;;4.50;2.40;;;18.80;93.70;;;;;;20678647;28;20215;-76
2022/09/04 23:32:58;;;;;;;3.93;2.37;;;18.70;93.80;;;;;;20677067;28;20238;-76
2022/09/04 23:43:30;;;;;;;4.20;2.40;;;18.60;93.80;;;;;;20676203;28;20215;-77
2022/09/04 23:53:45;;;;;;;3.23;2.37;;;18.50;94.00;;;;;;20675003;28;20248;-76
